createdAt,value
2019-05-16T00:01:52.420Z,1.70
2019-05-16T00:04:19.189Z,0.80
2019-05-16T00:06:47.988Z,1.75
2019-05-16T00:09:14.342Z,3.25
2019-05-16T00:11:41.130Z,1.72
2019-05-16T00:14:08.426Z,2.15
2019-05-16T00:16:37.851Z,1.25
2019-05-16T00:19:03.984Z,2.42
2019-05-16T00:21:30.605Z,2.40
2019-05-16T00:23:58.645Z,2.80
2019-05-16T00:26:25.383Z,1.70
2019-05-16T00:28:52.052Z,4.10
2019-05-16T00:31:18.637Z,1.32
2019-05-16T00:33:45.327Z,2.72
2019-05-16T00:36:12.134Z,1.47
2019-05-16T00:38:38.697Z,2.20
2019-05-16T00:41:05.479Z,6.25
2019-05-16T00:43:32.186Z,1.07
2019-05-16T00:45:59.175Z,1.15
2019-05-16T00:48:28.843Z,2.47
2019-05-16T00:50:58.279Z,1.53
2019-05-16T00:53:24.507Z,1.67
2019-05-16T00:55:52.569Z,3.02
2019-05-16T00:58:20.092Z,1.35
2019-05-16T01:00:49.843Z,0.88
2019-05-16T01:03:19.879Z,0.98
2019-05-16T01:05:48.104Z,2.05
2019-05-16T01:08:15.114Z,1.30
2019-05-16T01:13:18.563Z,2.77
2019-05-16T01:15:45.580Z,1.42
2019-05-16T01:18:12.296Z,1.35
2019-05-16T01:20:40.732Z,3.72
2019-05-16T01:23:08.865Z,0.78
2019-05-16T01:25:35.748Z,2.58
2019-05-16T01:28:02.431Z,2.22
2019-05-16T01:30:29.180Z,0.95
2019-05-16T01:32:58.135Z,3.90
2019-05-16T01:35:24.518Z,1.00
2019-05-16T01:37:51.202Z,0.80
2019-05-16T01:40:18.888Z,1.00
2019-05-16T01:42:45.867Z,3.25
2019-05-16T01:45:13.189Z,1.00
2019-05-16T01:47:39.947Z,1.20
2019-05-16T01:50:08.679Z,1.07
2019-05-16T01:52:38.069Z,1.85
2019-05-16T01:55:04.692Z,1.00
2019-05-16T01:57:31.284Z,1.10
2019-05-16T01:59:58.952Z,1.92
2019-05-16T02:02:25.946Z,2.22
2019-05-16T02:04:52.638Z,1.75
2019-05-16T02:07:19.413Z,2.50
2019-05-16T02:09:47.647Z,1.95
2019-05-16T02:12:14.511Z,1.95
2019-05-16T02:14:41.194Z,2.65
2019-05-16T02:17:08.686Z,1.75
2019-05-16T02:19:38.486Z,1.10
2019-05-16T02:22:05.208Z,1.85
2019-05-16T02:24:32.043Z,4.33
2019-05-16T02:26:59.145Z,2.47
2019-05-16T02:29:25.933Z,2.37
2019-05-16T02:31:52.687Z,4.47
2019-05-16T02:34:21.818Z,2.72
2019-05-16T02:37:09.568Z,0.98
2019-05-16T02:39:16.622Z,2.20
2019-05-16T02:41:46.264Z,4.85
2019-05-16T02:44:12.318Z,1.57
2019-05-16T02:46:41.850Z,3.12
2019-05-16T02:49:11.333Z,1.85
2019-05-16T02:51:36.720Z,3.17
2019-05-16T02:54:03.939Z,1.60
2019-05-16T02:56:31.779Z,2.45
2019-05-16T02:59:01.640Z,1.25
2019-05-16T03:01:27.389Z,1.85
2019-05-16T03:03:54.224Z,1.32
2019-05-16T03:06:21.897Z,1.72
2019-05-16T03:08:50.785Z,1.72
2019-05-16T03:11:20.836Z,2.92
2019-05-16T03:13:47.374Z,2.42
2019-05-16T03:16:15.335Z,1.70
2019-05-16T03:18:42.407Z,2.83
2019-05-16T03:21:11.333Z,1.45
2019-05-16T03:23:41.693Z,1.70
2019-05-16T03:26:06.963Z,4.00
2019-05-16T03:28:33.653Z,2.17
2019-05-16T03:31:05.397Z,1.80
2019-05-16T03:33:38.948Z,3.35
2019-05-16T03:35:57.585Z,2.80
2019-05-16T03:38:24.338Z,3.02
2019-05-16T03:40:52.367Z,3.05
2019-05-16T03:43:21.960Z,2.52
2019-05-16T03:45:52.223Z,2.50
2019-05-16T03:48:17.315Z,4.72
2019-05-16T03:50:44.016Z,1.40
2019-05-16T03:53:11.625Z,3.00
2019-05-16T03:55:40.703Z,3.47
2019-05-16T03:58:07.185Z,2.33
2019-05-16T04:01:02.276Z,3.70
2019-05-16T04:03:32.107Z,3.75
2019-05-16T04:05:56.751Z,2.25
2019-05-16T04:08:25.559Z,3.50
2019-05-16T04:10:52.699Z,4.05
2019-05-16T04:13:21.392Z,3.37
2019-05-16T04:15:51.780Z,2.27
2019-05-16T04:18:17.045Z,1.40
2019-05-16T04:20:43.801Z,6.17
2019-05-16T04:23:11.170Z,3.33
2019-05-16T04:25:40.986Z,2.67
2019-05-16T04:28:07.237Z,2.47
2019-05-16T04:30:33.993Z,1.80
2019-05-16T04:33:01.875Z,2.17
2019-05-16T04:35:31.526Z,1.85
2019-05-16T04:37:57.386Z,1.40
2019-05-16T04:40:24.091Z,3.58
2019-05-16T04:42:51.458Z,3.95
2019-05-16T04:45:21.115Z,2.15
2019-05-16T04:47:47.073Z,4.45
2019-05-16T04:50:15.529Z,2.60
2019-05-16T04:52:42.271Z,6.12
2019-05-16T04:55:11.800Z,2.22
2019-05-16T04:57:41.755Z,1.32
2019-05-16T05:00:10.871Z,1.37
2019-05-16T05:02:36.224Z,4.37
2019-05-16T05:05:03.085Z,1.92
2019-05-16T05:07:31.322Z,4.80
2019-05-16T05:10:00.576Z,5.65
2019-05-16T05:12:26.839Z,2.50
2019-05-16T05:14:53.546Z,3.10
2019-05-16T05:17:21.033Z,5.65
2019-05-16T05:19:50.455Z,3.55
2019-05-16T05:22:19.885Z,2.62
2019-05-16T05:24:46.568Z,3.47
2019-05-16T05:27:13.227Z,1.60
2019-05-16T05:29:40.010Z,2.80
2019-05-16T05:32:06.759Z,2.87
2019-05-16T05:34:33.417Z,4.10
2019-05-16T05:37:00.394Z,3.30
2019-05-16T05:39:27.210Z,4.85
2019-05-16T05:41:53.971Z,2.35
2019-05-16T05:44:21.284Z,2.42
2019-05-16T05:46:47.962Z,4.37
2019-05-16T05:49:14.728Z,2.58
2019-05-16T05:51:43.522Z,7.50
2019-05-16T05:54:10.831Z,4.58
2019-05-16T05:56:39.813Z,6.17
2019-05-16T05:59:11.359Z,9.35
2019-05-16T06:01:40.103Z,3.27
2019-05-16T06:04:05.854Z,4.42
2019-05-16T06:06:32.531Z,3.67
2019-05-16T06:09:00.661Z,1.98
2019-05-16T06:11:27.645Z,3.98
2019-05-16T06:13:54.421Z,7.22
2019-05-16T06:16:21.113Z,1.40
2019-05-16T06:18:50.309Z,4.92
2019-05-16T06:21:20.091Z,3.08
2019-05-16T06:23:46.094Z,4.67
2019-05-16T06:26:12.818Z,2.65
2019-05-16T06:28:41.216Z,3.22
2019-05-16T06:31:13.035Z,2.77
2019-05-16T06:33:36.620Z,4.45
2019-05-16T06:36:03.388Z,2.37
2019-05-16T06:38:31.068Z,2.00
2019-05-16T06:41:00.049Z,3.27
2019-05-16T06:43:26.487Z,4.05
2019-05-16T06:45:53.246Z,1.65
2019-05-16T06:48:21.325Z,3.52
2019-05-16T06:50:51.490Z,2.72
2019-05-16T06:53:17.182Z,2.33
2019-05-16T06:55:43.950Z,4.28
2019-05-16T06:58:10.760Z,4.30
2019-05-16T07:00:37.514Z,2.98
2019-05-16T07:03:04.302Z,2.87
2019-05-16T07:05:31.098Z,4.15
2019-05-16T07:08:20.150Z,2.17
2019-05-16T07:10:46.129Z,3.33
2019-05-16T07:13:12.934Z,3.10
2019-05-16T07:15:40.230Z,3.35
2019-05-16T07:18:10.898Z,2.87
2019-05-16T07:20:37.056Z,3.47
2019-05-16T07:23:03.923Z,1.62
2019-05-16T07:25:30.980Z,2.85
2019-05-16T07:28:17.397Z,6.15
2019-05-16T07:30:44.186Z,2.40
2019-05-16T07:33:11.017Z,5.60
2019-05-16T07:35:40.033Z,2.80
2019-05-16T07:38:06.489Z,3.20
2019-05-16T07:40:33.336Z,2.37
2019-05-16T07:43:00.172Z,4.22
2019-05-16T07:45:26.964Z,1.57
2019-05-16T07:47:53.792Z,2.98
2019-05-16T07:50:20.625Z,3.47
2019-05-16T07:52:47.324Z,1.75
2019-05-16T07:55:14.493Z,4.90
2019-05-16T07:57:41.162Z,1.72
2019-05-16T08:00:09.720Z,3.80
2019-05-16T08:02:36.572Z,4.85
2019-05-16T08:05:03.648Z,3.00
2019-05-16T08:07:33.633Z,5.97
2019-05-16T08:09:59.873Z,4.60
2019-05-16T08:12:27.458Z,6.25
2019-05-16T08:14:54.323Z,4.28
2019-05-16T08:17:21.828Z,5.53
2019-05-16T08:19:50.648Z,2.25
2019-05-16T08:22:17.257Z,4.40
2019-05-16T08:24:44.029Z,3.20
2019-05-16T08:27:12.158Z,5.45
2019-05-16T08:29:40.436Z,1.92
2019-05-16T08:32:11.193Z,3.12
2019-05-16T08:34:37.050Z,2.00
2019-05-16T08:37:03.720Z,3.55
2019-05-16T08:39:31.188Z,2.27
2019-05-16T08:42:07.052Z,3.27
2019-05-16T08:44:26.814Z,7.65
2019-05-16T08:46:57.982Z,1.92
2019-05-16T08:49:22.478Z,3.77
2019-05-16T08:51:52.889Z,3.98
2019-05-16T08:54:18.017Z,8.30
2019-05-16T08:56:44.786Z,2.58
2019-05-16T08:59:13.489Z,3.05
2019-05-16T09:01:51.566Z,2.92
2019-05-16T09:04:11.930Z,3.10
2019-05-16T09:06:42.203Z,4.85
2019-05-16T09:09:26.630Z,5.33
2019-05-16T09:11:44.135Z,6.15
2019-05-16T09:14:07.721Z,6.17
2019-05-16T09:16:33.348Z,3.55
2019-05-16T09:19:00.042Z,3.17
2019-05-16T09:21:27.566Z,3.87
2019-05-16T09:23:57.814Z,3.37
2019-05-16T09:26:24.053Z,5.65
2019-05-16T09:28:50.839Z,5.17
2019-05-16T09:31:18.450Z,7.40
2019-05-16T09:33:47.438Z,4.75
2019-05-16T09:36:17.236Z,5.60
2019-05-16T09:38:42.788Z,3.80
2019-05-16T09:41:09.554Z,4.60
2019-05-16T09:43:39.794Z,4.78
2019-05-16T09:46:07.850Z,5.87
2019-05-16T09:48:37.735Z,2.40
2019-05-16T09:51:03.557Z,3.50
2019-05-16T09:53:30.313Z,3.35
2019-05-16T09:55:57.711Z,3.25
2019-05-16T09:58:24.578Z,3.40
2019-05-16T10:00:51.356Z,3.50
2019-05-16T10:03:22.339Z,2.40
2019-05-16T10:05:46.944Z,3.77
2019-05-16T10:08:14.074Z,3.30
2019-05-16T10:10:41.096Z,3.77
2019-05-16T10:13:07.751Z,3.08
2019-05-16T10:15:34.531Z,3.10
2019-05-16T10:18:01.291Z,2.75
2019-05-16T10:20:28.083Z,3.55
2019-05-16T10:22:57.683Z,4.60
2019-05-16T10:25:23.530Z,5.05
2019-05-16T10:27:50.368Z,4.12
2019-05-16T10:30:17.757Z,2.65
2019-05-16T10:32:44.635Z,3.77
2019-05-16T10:35:11.902Z,2.92
2019-05-16T10:37:38.708Z,5.00
2019-05-16T10:40:07.307Z,4.17
2019-05-16T10:42:37.946Z,3.08
2019-05-16T10:45:08.624Z,3.70
2019-05-16T10:47:37.100Z,3.65
2019-05-16T10:50:05.152Z,4.70
2019-05-16T10:52:31.942Z,2.67
2019-05-16T10:55:02.283Z,2.98
2019-05-16T10:57:29.926Z,6.90
2019-05-16T11:00:06.498Z,4.30
2019-05-16T11:02:27.393Z,5.75
2019-05-16T11:05:02.857Z,5.70
2019-05-16T11:07:22.384Z,3.40
2019-05-16T11:09:57.883Z,2.85
2019-05-16T11:12:20.523Z,3.77
2019-05-16T11:14:47.850Z,2.47
2019-05-16T11:17:14.476Z,3.27
2019-05-16T11:19:41.618Z,2.42
2019-05-16T11:22:08.326Z,4.45
2019-05-16T11:24:37.707Z,6.22
2019-05-16T11:27:07.408Z,4.60
2019-05-16T11:29:36.482Z,2.95
2019-05-16T11:32:02.686Z,5.78
2019-05-16T11:34:31.837Z,4.90
2019-05-16T11:37:01.687Z,3.52
2019-05-16T11:39:28.444Z,4.15
2019-05-16T11:41:57.119Z,4.25
2019-05-16T11:44:28.173Z,4.97
2019-05-16T11:46:52.620Z,6.22
2019-05-16T11:49:19.388Z,6.45
2019-05-16T11:51:47.523Z,3.55
2019-05-16T11:54:14.319Z,4.95
2019-05-16T11:57:02.431Z,4.12
2019-05-16T11:59:31.380Z,7.42
2019-05-16T12:01:58.102Z,3.90
2019-05-16T12:04:24.664Z,5.78
2019-05-16T12:06:51.356Z,3.77
2019-05-16T12:09:18.160Z,7.08
2019-05-16T12:11:45.130Z,4.62
2019-05-16T12:14:11.718Z,5.95
2019-05-16T12:16:40.566Z,4.15
2019-05-16T12:19:07.276Z,6.05
2019-05-16T12:21:35.397Z,3.02
2019-05-16T12:24:03.086Z,3.15
2019-05-16T12:26:29.673Z,3.75
2019-05-16T12:28:57.285Z,3.75
2019-05-16T12:31:24.243Z,6.45
2019-05-16T12:33:50.939Z,3.25
2019-05-16T12:36:17.786Z,3.67
2019-05-16T12:38:46.770Z,3.00
2019-05-16T12:41:13.265Z,4.55
2019-05-16T12:43:49.539Z,3.87
2019-05-16T12:46:11.592Z,4.28
2019-05-16T12:48:47.428Z,4.65
2019-05-16T12:51:14.075Z,6.67
2019-05-16T12:53:43.746Z,4.30
2019-05-16T12:56:10.414Z,5.47
2019-05-16T12:58:42.176Z,4.05
2019-05-16T13:01:09.229Z,7.22
2019-05-16T13:03:37.778Z,4.72
2019-05-16T13:06:04.936Z,3.85
2019-05-16T13:08:34.052Z,4.55
2019-05-16T13:11:01.059Z,3.85
2019-05-16T13:13:28.020Z,5.62
2019-05-16T13:15:54.859Z,3.95
2019-05-16T13:18:21.576Z,4.25
2019-05-16T13:20:48.378Z,3.17
2019-05-16T13:23:18.072Z,3.83
2019-05-16T13:25:43.859Z,3.00
2019-05-16T13:28:12.752Z,6.33
2019-05-16T13:30:39.739Z,3.70
2019-05-16T13:33:07.310Z,3.95
2019-05-16T13:35:36.751Z,4.25
2019-05-16T13:38:03.043Z,4.70
2019-05-16T13:40:29.757Z,7.42
2019-05-16T13:42:57.380Z,9.15
2019-05-16T13:45:26.990Z,6.70
2019-05-16T13:47:52.686Z,5.95
2019-05-16T13:50:19.564Z,5.87
2019-05-16T13:52:48.092Z,4.30
2019-05-16T13:55:16.771Z,3.70
2019-05-16T13:57:43.740Z,7.60
2019-05-16T14:00:12.626Z,4.90
2019-05-16T14:02:41.771Z,5.37
2019-05-16T14:05:29.866Z,4.70
2019-05-16T14:07:57.250Z,11.03
2019-05-16T14:10:23.939Z,14.13
2019-05-16T14:12:50.604Z,14.63
2019-05-16T14:15:18.255Z,7.12
2019-05-16T14:17:45.087Z,5.45
2019-05-16T14:20:14.934Z,6.17
2019-05-16T14:22:41.399Z,7.25
2019-05-16T14:25:08.495Z,4.80
2019-05-16T14:27:37.851Z,4.10
2019-05-16T14:30:07.428Z,5.35
2019-05-16T14:32:33.502Z,5.10
2019-05-16T14:35:00.212Z,4.30
2019-05-16T14:37:27.105Z,5.42
2019-05-16T14:39:57.826Z,4.90
2019-05-16T14:42:23.805Z,6.35
2019-05-16T14:45:06.715Z,5.97
2019-05-16T14:47:19.067Z,6.00
2019-05-16T14:49:48.672Z,6.05
2019-05-16T14:52:14.409Z,5.40
2019-05-16T14:54:41.075Z,8.65
2019-05-16T14:57:07.880Z,13.93
2019-05-16T14:59:36.493Z,15.83
2019-05-16T15:02:07.102Z,13.78
2019-05-16T15:07:00.548Z,8.73
2019-05-16T15:09:28.599Z,9.28
2019-05-16T15:11:58.142Z,6.85
2019-05-16T15:14:23.981Z,7.08
2019-05-16T15:16:51.988Z,6.60
2019-05-16T15:19:18.773Z,6.58
2019-05-16T15:21:47.635Z,5.58
2019-05-16T15:24:14.010Z,6.85
2019-05-16T15:26:40.844Z,7.20
2019-05-16T15:29:08.311Z,6.03
2019-05-16T15:31:36.346Z,7.05
2019-05-16T15:34:03.711Z,6.15
2019-05-16T15:36:30.393Z,7.15
2019-05-16T15:38:59.563Z,6.35
2019-05-16T15:41:27.296Z,7.67
2019-05-16T15:43:59.004Z,5.97
2019-05-16T15:46:23.352Z,6.55
2019-05-16T15:48:50.323Z,6.35
2019-05-16T15:51:38.536Z,6.90
2019-05-16T15:54:06.721Z,5.22
2019-05-16T15:56:34.077Z,4.42
2019-05-16T15:59:02.373Z,6.87
2019-05-16T16:01:29.026Z,5.15
2019-05-16T16:03:58.589Z,3.87
2019-05-16T16:06:27.447Z,4.50
2019-05-16T16:08:54.100Z,7.78
2019-05-16T16:11:22.295Z,7.62
2019-05-16T16:13:48.990Z,5.37
2019-05-16T16:16:17.403Z,7.22
2019-05-16T16:18:46.701Z,4.50
2019-05-16T16:21:12.937Z,7.10
2019-05-16T16:23:39.723Z,7.65
2019-05-16T16:26:07.567Z,5.47
2019-05-16T16:28:37.905Z,8.33
2019-05-16T16:31:03.881Z,6.08
2019-05-16T16:33:30.568Z,5.33
2019-05-16T16:35:57.416Z,8.85
2019-05-16T16:38:24.133Z,3.87
2019-05-16T16:40:50.791Z,3.72
2019-05-16T16:43:17.449Z,5.40
2019-05-16T16:45:47.732Z,3.62
2019-05-16T16:48:13.210Z,3.40
2019-05-16T16:50:40.847Z,4.08
2019-05-16T16:53:07.627Z,11.45
2019-05-16T16:55:36.823Z,4.33
2019-05-16T16:58:09.518Z,3.10
2019-05-16T17:00:38.426Z,3.72
2019-05-16T17:03:10.411Z,3.05
2019-05-16T17:05:36.996Z,3.72
2019-05-16T17:08:03.738Z,4.05
2019-05-16T17:10:30.502Z,6.70
2019-05-16T17:12:57.771Z,4.30
2019-05-16T17:15:27.026Z,4.35
2019-05-16T17:17:53.442Z,4.92
2019-05-16T17:20:21.114Z,5.80
2019-05-16T17:22:47.886Z,5.90
2019-05-16T17:25:14.855Z,5.87
2019-05-16T17:27:41.646Z,4.80
2019-05-16T17:30:13.857Z,5.08
2019-05-16T17:32:43.430Z,5.65
2019-05-16T17:35:10.184Z,4.87
2019-05-16T17:37:37.489Z,5.00
2019-05-16T17:40:05.257Z,4.90
2019-05-16T17:42:34.493Z,6.90
2019-05-16T17:45:00.595Z,6.75
2019-05-16T17:47:27.296Z,6.20
2019-05-16T17:49:54.065Z,6.95
2019-05-16T17:52:20.644Z,6.12
2019-05-16T17:54:47.424Z,6.12
2019-05-16T17:57:14.180Z,7.12
2019-05-16T17:59:40.852Z,6.58
2019-05-16T18:02:07.536Z,6.45
2019-05-16T18:04:34.217Z,9.95
2019-05-16T18:07:00.879Z,7.85
2019-05-16T18:09:27.884Z,9.08
2019-05-16T18:11:54.650Z,8.95
2019-05-16T18:14:21.434Z,9.40
2019-05-16T18:16:57.876Z,8.68
2019-05-16T18:19:17.348Z,8.20
2019-05-16T18:21:46.443Z,9.68
2019-05-16T18:24:13.285Z,9.85
2019-05-16T18:26:40.071Z,13.53
2019-05-16T18:29:07.546Z,11.22
2019-05-16T18:31:34.369Z,9.40
2019-05-16T18:34:01.084Z,12.07
2019-05-16T18:36:27.708Z,16.32
2019-05-16T18:38:54.287Z,15.32
2019-05-16T18:41:21.945Z,10.48
2019-05-16T18:43:48.764Z,11.78
2019-05-16T18:46:16.352Z,13.15
2019-05-16T18:48:43.201Z,13.53
2019-05-16T18:51:10.016Z,13.60
2019-05-16T18:53:39.249Z,12.33
2019-05-16T18:56:07.759Z,12.60
2019-05-16T18:58:37.025Z,13.22
2019-05-16T19:01:03.337Z,12.63
2019-05-16T19:03:30.378Z,12.18
2019-05-16T19:05:57.398Z,14.95
2019-05-16T19:08:26.877Z,12.73
2019-05-16T19:10:52.950Z,12.47
2019-05-16T19:13:19.628Z,14.90
2019-05-16T19:15:49.239Z,13.93
2019-05-16T19:18:17.070Z,13.35
2019-05-16T19:20:46.069Z,13.65
2019-05-16T19:23:12.550Z,14.68
2019-05-16T19:25:39.328Z,17.23
2019-05-16T19:28:07.030Z,14.65
2019-05-16T19:30:37.542Z,17.17
2019-05-16T19:33:06.774Z,15.78
2019-05-16T19:35:33.403Z,19.40
2019-05-16T19:38:01.425Z,16.45
2019-05-16T19:40:31.172Z,17.02
2019-05-16T19:42:57.741Z,20.60
2019-05-16T19:45:26.449Z,18.20
2019-05-16T19:47:53.437Z,18.48
2019-05-16T19:50:22.364Z,21.30
2019-05-16T19:52:48.926Z,19.50
2019-05-16T19:55:17.832Z,22.00
2019-05-16T19:57:46.522Z,20.55
2019-05-16T20:00:13.659Z,24.00
2019-05-16T20:02:40.432Z,24.43
2019-05-16T20:05:08.341Z,24.00
2019-05-16T20:07:37.241Z,22.85
2019-05-16T20:10:06.993Z,21.23
2019-05-16T20:12:33.621Z,24.80
2019-05-16T20:15:08.188Z,23.35
2019-05-16T20:17:29.224Z,24.30
2019-05-16T20:19:56.383Z,24.72
2019-05-16T20:22:23.287Z,22.13
2019-05-16T20:24:50.042Z,22.62
2019-05-16T20:27:19.474Z,23.47
2019-05-16T20:29:47.461Z,25.10
2019-05-16T20:32:16.709Z,29.43
2019-05-16T20:34:42.939Z,31.70
2019-05-16T20:37:09.749Z,31.90
2019-05-16T20:39:37.138Z,29.77
2019-05-16T20:42:04.300Z,35.80
2019-05-16T20:44:31.091Z,31.62
2019-05-16T20:46:57.988Z,29.48
2019-05-16T20:49:26.990Z,30.62
2019-05-16T20:51:53.460Z,31.55
2019-05-16T20:54:20.207Z,30.32
2019-05-16T20:56:49.467Z,32.53
2019-05-16T20:59:17.439Z,34.70
2019-05-16T21:01:46.429Z,28.05
2019-05-16T21:04:13.358Z,28.20
2019-05-16T21:06:40.138Z,30.70
2019-05-16T21:09:06.911Z,24.67
2019-05-16T21:11:33.738Z,25.95
2019-05-16T21:14:00.762Z,28.42
2019-05-16T21:16:27.464Z,23.30
2019-05-16T21:18:57.376Z,24.00
2019-05-16T21:21:23.710Z,25.75
2019-05-16T21:23:50.371Z,23.10
2019-05-16T21:26:17.062Z,22.32
2019-05-16T21:28:43.623Z,24.98
2019-05-16T21:31:10.282Z,23.70
2019-05-16T21:33:37.356Z,24.07
2019-05-16T21:36:04.129Z,27.15
2019-05-16T21:38:30.945Z,23.90
2019-05-16T21:40:58.383Z,26.85
2019-05-16T21:43:27.143Z,25.75
2019-05-16T21:45:53.931Z,29.82
2019-05-16T21:48:20.708Z,30.30
2019-05-16T21:50:47.488Z,31.37
2019-05-16T21:53:14.282Z,30.15
2019-05-16T21:55:41.003Z,29.82
2019-05-16T21:58:08.007Z,30.95
2019-05-16T22:00:42.403Z,32.40
2019-05-16T22:03:09.291Z,32.85
2019-05-16T22:05:37.576Z,31.87
2019-05-16T22:08:04.663Z,29.15
2019-05-16T22:10:31.691Z,29.12
2019-05-16T22:13:07.762Z,30.97
2019-05-16T22:15:36.606Z,30.02
2019-05-16T22:18:03.662Z,29.27
2019-05-16T22:20:30.432Z,27.22
2019-05-16T22:22:58.431Z,31.12
2019-05-16T22:25:27.270Z,32.70
2019-05-16T22:27:54.179Z,30.02
2019-05-16T22:30:20.954Z,30.95
2019-05-16T22:32:47.867Z,32.40
2019-05-16T22:35:37.539Z,31.62
2019-05-16T22:38:06.535Z,31.43
2019-05-16T22:40:33.464Z,29.45
2019-05-16T22:43:00.121Z,29.30
2019-05-16T22:45:27.297Z,29.37
2019-05-16T22:47:53.978Z,32.93
2019-05-16T22:50:20.732Z,30.00
2019-05-16T22:52:47.514Z,31.33
2019-05-16T22:55:16.837Z,33.60
2019-05-16T22:57:43.399Z,29.72
2019-05-16T23:00:13.522Z,26.27
2019-05-16T23:02:40.234Z,28.52
2019-05-16T23:05:07.473Z,29.52
2019-05-16T23:07:36.770Z,27.37
2019-05-16T23:10:04.198Z,28.90
2019-05-16T23:12:30.868Z,27.48
2019-05-16T23:14:57.547Z,26.15
2019-05-16T23:17:26.578Z,25.70
2019-05-16T23:19:52.690Z,27.07
2019-05-16T23:22:19.815Z,27.55
2019-05-16T23:24:46.520Z,25.65
2019-05-16T23:27:13.272Z,23.87
2019-05-16T23:29:39.963Z,26.00
2019-05-16T23:32:07.449Z,29.15
2019-05-16T23:34:37.331Z,24.82
2019-05-16T23:37:06.326Z,31.95
2019-05-16T23:39:32.824Z,30.52
2019-05-16T23:41:59.503Z,32.67
2019-05-16T23:44:26.227Z,36.30
2019-05-16T23:46:53.021Z,32.93
2019-05-16T23:49:19.605Z,40.83
2019-05-16T23:51:47.297Z,32.28
2019-05-16T23:54:14.286Z,32.95
2019-05-16T23:56:41.067Z,31.00
2019-05-16T23:59:07.850Z,31.33
